Time;durP1;ratioP1;P1;durP2;ratioP2;P2;SDS_P1;SDS_P2;PMS_P1;PMS_P2;Temp;Humidity;BMP_temperature;BMP_pressure;BME280_temperature;BME280_humidity;BME280_pressure;Samples;Min_cycle;Max_cycle;Signal;HPM_P1;HPM_P2
2022/01/29 00:02:22;;;;;;;16.25;3.08;;;;;;;;;;5058341;28;20461;-48
2022/01/29 00:04:48;;;;;;;13.13;2.67;;;;;;;;;;5072483;28;20016;-49
2022/01/29 00:07:14;;;;;;;13.07;2.13;;;;;;;;;;5071450;28;20032;-49
2022/01/29 00:09:43;;;;;;;9.80;2.22;;;;;;;;;;5063176;28;20025;-48
2022/01/29 00:12:10;;;;;;;13.02;3.08;;;;;;;;;;5065916;28;20067;-48
2022/01/29 00:14:36;;;;;;;11.55;2.70;;;;;;;;;;5072803;28;20419;-48
2022/01/29 00:17:02;;;;;;;15.80;2.92;;;;;;;;;;5070602;28;20107;-48
2022/01/29 00:19:28;;;;;;;11.85;2.95;;;;;;;;;;5070625;28;20029;-50
2022/01/29 00:21:54;;;;;;;8.48;2.45;;;;;;;;;;5068716;28;20027;-49
2022/01/29 00:24:20;;;;;;;16.23;2.35;;;;;;;;;;5071430;28;20692;-48
2022/01/29 00:26:46;;;;;;;13.48;2.67;;;;;;;;;;5063985;28;20104;-49
2022/01/29 00:29:21;;;;;;;10.65;2.20;;;;;;;;;;5068954;28;20112;-48
2022/01/29 00:31:47;;;;;;;5.95;1.75;;;;;;;;;;5064990;28;20845;-50
2022/01/29 00:34:13;;;;;;;11.73;2.45;;;;;;;;;;5072780;28;20439;-49
2022/01/29 00:36:40;;;;;;;12.18;2.17;;;;;;;;;;5072344;28;20369;-51
2022/01/29 00:39:06;;;;;;;17.38;2.70;;;;;;;;;;5070675;28;20020;-52
2022/01/29 00:41:32;;;;;;;10.95;2.38;;;;;;;;;;5058134;28;20046;-50
2022/01/29 00:43:58;;;;;;;13.77;2.58;;;;;;;;;;5057097;28;20123;-49
2022/01/29 00:46:23;;;;;;;18.25;2.53;;;;;;;;;;5063651;28;20046;-52
2022/01/29 00:48:49;;;;;;;12.20;2.58;;;;;;;;;;5061806;28;20056;-51
2022/01/29 00:51:15;;;;;;;9.82;3.40;;;;;;;;;;5065603;28;20059;-48
2022/01/29 00:53:41;;;;;;;6.80;2.08;;;;;;;;;;5060626;28;20043;-50
2022/01/29 00:56:09;;;;;;;18.50;2.50;;;;;;;;;;5063914;28;20059;-52
2022/01/29 00:58:35;;;;;;;15.50;3.80;;;;;;;;;;5070595;28;20082;-48
2022/01/29 01:01:02;;;;;;;15.02;2.75;;;;;;;;;;5070871;28;20501;-50
2022/01/29 01:03:27;;;;;;;13.63;2.47;;;;;;;;;;5063800;28;20032;-54
2022/01/29 01:05:53;;;;;;;12.73;2.72;;;;;;;;;;5055820;28;20440;-50
2022/01/29 01:08:19;;;;;;;10.73;2.22;;;;;;;;;;5074956;28;20055;-51
2022/01/29 01:10:45;;;;;;;16.25;3.90;;;;;;;;;;5062300;28;20029;-50
2022/01/29 01:13:12;;;;;;;12.32;2.60;;;;;;;;;;5065799;28;20036;-53
2022/01/29 01:15:38;;;;;;;10.30;2.63;;;;;;;;;;5060476;28;20036;-49
2022/01/29 01:18:04;;;;;;;26.42;2.97;;;;;;;;;;5071922;28;20519;-49
2022/01/29 01:20:30;;;;;;;8.02;2.90;;;;;;;;;;5061979;28;20394;-51
2022/01/29 01:22:56;;;;;;;14.07;2.83;;;;;;;;;;5074000;28;20107;-48
2022/01/29 01:25:22;;;;;;;13.52;2.53;;;;;;;;;;5065971;28;20407;-52
2022/01/29 01:27:48;;;;;;;13.32;2.38;;;;;;;;;;5069314;28;20024;-51
2022/01/29 01:30:15;;;;;;;16.85;2.60;;;;;;;;;;5072444;28;20025;-48
2022/01/29 01:32:41;;;;;;;12.40;2.33;;;;;;;;;;5058910;28;20036;-49
2022/01/29 01:35:20;;;;;;;16.65;2.22;;;;;;;;;;5067506;28;20036;-49
2022/01/29 01:37:52;;;;;;;7.07;1.80;;;;;;;;;;5067518;28;20028;-49
2022/01/29 01:40:19;;;;;;;13.48;2.95;;;;;;;;;;5065595;28;20479;-53
2022/01/29 01:42:45;;;;;;;10.40;2.80;;;;;;;;;;5061495;28;20033;-48
2022/01/29 01:45:12;;;;;;;6.45;2.08;;;;;;;;;;5066835;28;20017;-50
2022/01/29 01:47:38;;;;;;;13.77;2.17;;;;;;;;;;5056417;28;20373;-49
2022/01/29 01:50:04;;;;;;;12.35;1.90;;;;;;;;;;5066327;28;20035;-48
2022/01/29 01:52:30;;;;;;;11.20;3.35;;;;;;;;;;5067179;28;20044;-50
2022/01/29 01:54:56;;;;;;;25.95;3.25;;;;;;;;;;5065461;28;20035;-47
2022/01/29 01:57:22;;;;;;;16.13;2.28;;;;;;;;;;5073893;28;21777;-48
2022/01/29 01:59:48;;;;;;;10.63;2.25;;;;;;;;;;5069939;28;20575;-52
2022/01/29 02:02:14;;;;;;;10.52;3.00;;;;;;;;;;5064521;28;20111;-46
2022/01/29 02:04:40;;;;;;;15.98;3.42;;;;;;;;;;5070868;28;20013;-46
2022/01/29 02:07:06;;;;;;;15.38;3.53;;;;;;;;;;5073676;28;20104;-48
2022/01/29 02:09:33;;;;;;;8.15;2.30;;;;;;;;;;5072550;28;20128;-47
2022/01/29 02:12:02;;;;;;;18.77;3.58;;;;;;;;;;5064584;28;20544;-46
2022/01/29 02:14:31;;;;;;;14.07;2.92;;;;;;;;;;5065814;28;20102;-46
2022/01/29 02:16:58;;;;;;;11.55;3.13;;;;;;;;;;5066048;28;20028;-46
2022/01/29 02:19:25;;;;;;;10.43;2.75;;;;;;;;;;5072689;28;20021;-47
2022/01/29 02:21:51;;;;;;;18.80;3.08;;;;;;;;;;5067843;28;20031;-47
2022/01/29 02:24:17;;;;;;;18.23;3.25;;;;;;;;;;5067462;28;20032;-46
2022/01/29 02:26:43;;;;;;;9.55;3.13;;;;;;;;;;5073374;28;20024;-47
2022/01/29 02:29:09;;;;;;;13.05;2.80;;;;;;;;;;5073097;28;20021;-48
2022/01/29 02:31:35;;;;;;;14.88;2.70;;;;;;;;;;5066244;28;20025;-46
2022/01/29 02:34:03;;;;;;;15.10;2.65;;;;;;;;;;5057431;28;20028;-46
2022/01/29 02:36:29;;;;;;;16.80;3.05;;;;;;;;;;5073233;28;20025;-46
2022/01/29 02:38:55;;;;;;;12.85;2.83;;;;;;;;;;5072275;28;20040;-46
2022/01/29 02:41:23;;;;;;;8.23;2.35;;;;;;;;;;5068144;28;20036;-47
2022/01/29 02:43:51;;;;;;;9.18;2.35;;;;;;;;;;5071783;28;20020;-47
2022/01/29 02:48:45;;;;;;;14.15;3.25;;;;;;;;;;5072482;28;20032;-47
2022/01/29 02:51:11;;;;;;;14.15;2.67;;;;;;;;;;5070738;28;20131;-46
2022/01/29 02:53:37;;;;;;;10.10;3.10;;;;;;;;;;5068340;28;20059;-47
2022/01/29 02:56:03;;;;;;;14.65;3.33;;;;;;;;;;5070928;28;20085;-47
2022/01/29 02:58:29;;;;;;;12.70;2.67;;;;;;;;;;5068509;28;20033;-50
2022/01/29 03:00:55;;;;;;;17.20;2.90;;;;;;;;;;5063066;28;20113;-45
2022/01/29 03:03:21;;;;;;;18.10;4.68;;;;;;;;;;5065508;28;20041;-48
2022/01/29 03:05:47;;;;;;;14.93;3.22;;;;;;;;;;5059102;28;20079;-46
2022/01/29 03:08:13;;;;;;;8.30;2.80;;;;;;;;;;5058739;28;20420;-46
2022/01/29 03:10:39;;;;;;;11.00;2.55;;;;;;;;;;5059731;28;20029;-48
2022/01/29 03:13:06;;;;;;;19.92;3.38;;;;;;;;;;5066469;28;20500;-46
2022/01/29 03:15:31;;;;;;;16.85;3.00;;;;;;;;;;5055188;28;20107;-46
2022/01/29 03:17:57;;;;;;;9.55;2.70;;;;;;;;;;5067714;28;20408;-46
2022/01/29 03:20:23;;;;;;;15.07;3.20;;;;;;;;;;5059338;28;20115;-46
2022/01/29 03:22:49;;;;;;;10.90;2.78;;;;;;;;;;5058158;28;20349;-46
2022/01/29 03:25:16;;;;;;;12.45;3.70;;;;;;;;;;5072144;28;20031;-49
2022/01/29 03:27:42;;;;;;;21.83;3.47;;;;;;;;;;5071471;28;20024;-45
2022/01/29 03:30:08;;;;;;;9.95;3.40;;;;;;;;;;5069253;28;20032;-47
2022/01/29 03:32:34;;;;;;;11.50;3.33;;;;;;;;;;5063979;28;20032;-48
2022/01/29 03:35:01;;;;;;;22.85;4.32;;;;;;;;;;5053768;28;20446;-47
2022/01/29 03:37:27;;;;;;;17.13;3.83;;;;;;;;;;5070960;28;20560;-46
2022/01/29 03:39:57;;;;;;;15.35;4.70;;;;;;;;;;5071188;28;20024;-47
2022/01/29 03:42:24;;;;;;;15.43;3.70;;;;;;;;;;5064895;28;20029;-50
2022/01/29 03:44:50;;;;;;;16.15;4.10;;;;;;;;;;5067558;28;20024;-49
2022/01/29 03:47:16;;;;;;;16.95;4.82;;;;;;;;;;5070149;28;20582;-49
2022/01/29 03:49:42;;;;;;;19.25;5.13;;;;;;;;;;5070939;28;20032;-46
2022/01/29 03:52:08;;;;;;;21.23;4.47;;;;;;;;;;5060030;28;20052;-48
2022/01/29 03:54:34;;;;;;;13.80;3.75;;;;;;;;;;5060786;28;20124;-48
2022/01/29 03:57:00;;;;;;;15.88;4.22;;;;;;;;;;5057845;28;20427;-49
2022/01/29 03:59:26;;;;;;;15.88;4.97;;;;;;;;;;5070661;28;20156;-46
2022/01/29 04:01:52;;;;;;;11.85;3.95;;;;;;;;;;5060460;28;20477;-50
2022/01/29 04:04:18;;;;;;;11.98;4.93;;;;;;;;;;5068669;28;20468;-46
2022/01/29 04:06:43;;;;;;;15.70;4.72;;;;;;;;;;5064101;28;20048;-47
2022/01/29 04:09:11;;;;;;;15.68;5.38;;;;;;;;;;5071208;28;20025;-45
2022/01/29 04:11:38;;;;;;;20.27;5.10;;;;;;;;;;5057660;28;20028;-51
2022/01/29 04:14:05;;;;;;;20.45;4.97;;;;;;;;;;5070834;28;20352;-47
2022/01/29 04:16:31;;;;;;;20.90;5.45;;;;;;;;;;5061960;28;20025;-46
2022/01/29 04:18:57;;;;;;;15.45;4.65;;;;;;;;;;5068833;28;20025;-49
2022/01/29 04:21:23;;;;;;;20.38;5.05;;;;;;;;;;5061365;28;20039;-46
2022/01/29 04:23:49;;;;;;;21.75;6.07;;;;;;;;;;5062788;28;20540;-46
2022/01/29 04:26:15;;;;;;;11.52;5.25;;;;;;;;;;5065431;28;20033;-46
2022/01/29 04:28:43;;;;;;;20.02;5.30;;;;;;;;;;5061232;28;20361;-45
2022/01/29 04:31:15;;;;;;;13.40;5.22;;;;;;;;;;5056960;28;20056;-47
2022/01/29 04:33:41;;;;;;;22.58;5.38;;;;;;;;;;5057864;28;20660;-48
2022/01/29 04:36:08;;;;;;;22.95;5.15;;;;;;;;;;5061675;28;20028;-48
2022/01/29 04:38:34;;;;;;;22.23;5.72;;;;;;;;;;5074208;28;20025;-47
2022/01/29 04:41:03;;;;;;;14.77;4.88;;;;;;;;;;5063785;28;20024;-51
2022/01/29 04:43:30;;;;;;;15.25;5.32;;;;;;;;;;5073462;28;20024;-45
2022/01/29 04:45:55;;;;;;;13.80;5.47;;;;;;;;;;5071706;28;20027;-49
2022/01/29 04:48:21;;;;;;;17.15;4.70;;;;;;;;;;5074820;28;20025;-47
2022/01/29 04:50:47;;;;;;;14.60;5.93;;;;;;;;;;5072298;28;20048;-48
2022/01/29 04:53:13;;;;;;;16.58;5.38;;;;;;;;;;5067796;28;20025;-46
2022/01/29 04:55:39;;;;;;;14.43;5.78;;;;;;;;;;5068682;28;20052;-47
2022/01/29 04:58:05;;;;;;;22.48;5.90;;;;;;;;;;5074197;28;20020;-49
2022/01/29 05:00:32;;;;;;;21.88;6.68;;;;;;;;;;5061200;28;20039;-46
2022/01/29 05:03:10;;;;;;;17.67;5.45;;;;;;;;;;5062878;28;20041;-47
2022/01/29 05:05:36;;;;;;;17.80;5.93;;;;;;;;;;5067456;28;20020;-47
2022/01/29 05:08:03;;;;;;;20.45;5.93;;;;;;;;;;5066298;28;20047;-47
2022/01/29 05:10:29;;;;;;;20.02;6.22;;;;;;;;;;5070841;28;20091;-46
2022/01/29 05:13:02;;;;;;;23.30;5.50;;;;;;;;;;5071194;28;20032;-49
2022/01/29 05:15:38;;;;;;;21.65;5.90;;;;;;;;;;5069602;28;20104;-49
2022/01/29 05:29:04;;;;;;;17.20;5.70;;;;;;;;;;5073544;28;20153;-47
2022/01/29 05:31:31;;;;;;;19.38;6.53;;;;;;;;;;5071020;28;20041;-47
2022/01/29 05:33:57;;;;;;;19.40;6.22;;;;;;;;;;5060320;28;20476;-47
2022/01/29 05:36:23;;;;;;;22.65;7.53;;;;;;;;;;5063078;28;20503;-48
2022/01/29 05:38:49;;;;;;;16.73;6.97;;;;;;;;;;5065730;28;20050;-47
2022/01/29 05:41:15;;;;;;;24.55;6.97;;;;;;;;;;5069058;28;20033;-50
2022/01/29 05:43:43;;;;;;;18.17;5.80;;;;;;;;;;5072450;28;20689;-49
2022/01/29 05:46:09;;;;;;;17.20;6.15;;;;;;;;;;5071559;28;20456;-47
2022/01/29 05:48:35;;;;;;;20.20;6.47;;;;;;;;;;5072355;28;20099;-48
2022/01/29 05:51:01;;;;;;;19.23;6.50;;;;;;;;;;5063502;28;20405;-45
2022/01/29 05:53:27;;;;;;;26.25;6.82;;;;;;;;;;5072246;28;20020;-49
2022/01/29 05:55:53;;;;;;;13.93;6.82;;;;;;;;;;5069396;28;20052;-47
2022/01/29 05:58:19;;;;;;;17.20;7.30;;;;;;;;;;5066533;28;20070;-46
2022/01/29 06:00:45;;;;;;;23.10;7.07;;;;;;;;;;5063191;28;20170;-46
2022/01/29 06:03:11;;;;;;;15.50;7.35;;;;;;;;;;5068145;28;20454;-49
2022/01/29 06:05:37;;;;;;;20.33;6.85;;;;;;;;;;5069458;28;20040;-48
2022/01/29 06:08:04;;;;;;;19.45;7.13;;;;;;;;;;5069650;28;20082;-46
2022/01/29 06:10:31;;;;;;;18.40;6.65;;;;;;;;;;5054451;28;20473;-48
2022/01/29 06:13:17;;;;;;;19.92;7.53;;;;;;;;;;5069666;28;20036;-47
2022/01/29 06:15:44;;;;;;;17.33;6.85;;;;;;;;;;5072649;28;20115;-48
2022/01/29 06:18:19;;;;;;;19.77;7.00;;;;;;;;;;5072694;28;20028;-47
2022/01/29 06:20:46;;;;;;;19.50;6.60;;;;;;;;;;5063534;28;20044;-47
2022/01/29 06:23:13;;;;;;;13.52;6.18;;;;;;;;;;5072441;28;20221;-46
2022/01/29 06:25:39;;;;;;;14.75;6.53;;;;;;;;;;5061575;28;20115;-47
2022/01/29 06:28:06;;;;;;;19.65;6.15;;;;;;;;;;5063400;28;20111;-46
2022/01/29 06:30:32;;;;;;;22.33;7.70;;;;;;;;;;5063840;28;20032;-48
2022/01/29 06:33:05;;;;;;;20.17;6.72;;;;;;;;;;5066651;28;20523;-46
2022/01/29 06:35:31;;;;;;;19.08;7.82;;;;;;;;;;5067589;28;20021;-47
2022/01/29 06:37:57;;;;;;;18.77;7.70;;;;;;;;;;5072055;28;20532;-48
2022/01/29 06:40:23;;;;;;;17.35;7.35;;;;;;;;;;5071054;28;20024;-46
2022/01/29 06:42:49;;;;;;;18.45;7.63;;;;;;;;;;5069163;28;20086;-49
2022/01/29 06:45:15;;;;;;;24.83;7.18;;;;;;;;;;5069738;28;20027;-47
2022/01/29 06:47:41;;;;;;;24.30;8.45;;;;;;;;;;5072077;28;20032;-47
2022/01/29 06:50:07;;;;;;;17.20;7.53;;;;;;;;;;5083099;28;20118;-47
2022/01/29 06:52:33;;;;;;;23.05;7.35;;;;;;;;;;5066188;28;20433;-47
2022/01/29 06:54:59;;;;;;;19.77;7.75;;;;;;;;;;5065339;28;20051;-48
2022/01/29 06:57:25;;;;;;;19.15;7.70;;;;;;;;;;5072034;28;20453;-47
2022/01/29 06:59:51;;;;;;;17.73;7.28;;;;;;;;;;5070548;28;20127;-48
2022/01/29 07:02:17;;;;;;;20.27;8.10;;;;;;;;;;5067169;28;20037;-46
2022/01/29 07:04:43;;;;;;;18.73;7.75;;;;;;;;;;5066701;28;20017;-46
2022/01/29 07:07:09;;;;;;;15.90;7.53;;;;;;;;;;5072600;28;20024;-47
2022/01/29 07:09:35;;;;;;;17.83;8.18;;;;;;;;;;5068635;28;20044;-47
2022/01/29 07:12:09;;;;;;;21.52;7.53;;;;;;;;;;5067844;28;20392;-48
2022/01/29 07:14:38;;;;;;;15.30;7.65;;;;;;;;;;5065127;28;20043;-49
2022/01/29 07:17:05;;;;;;;16.80;8.07;;;;;;;;;;5068671;28;20029;-49
2022/01/29 07:19:31;;;;;;;20.60;8.65;;;;;;;;;;5063708;28;20021;-50
2022/01/29 07:21:57;;;;;;;20.38;8.60;;;;;;;;;;5068191;28;20119;-46
2022/01/29 07:24:23;;;;;;;15.50;8.43;;;;;;;;;;5056473;28;20036;-46
2022/01/29 07:26:49;;;;;;;18.05;8.50;;;;;;;;;;5068172;28;20426;-51
2022/01/29 07:29:15;;;;;;;17.55;8.20;;;;;;;;;;5062912;28;20079;-47
2022/01/29 07:31:41;;;;;;;19.15;8.98;;;;;;;;;;5067420;28;20041;-49
2022/01/29 07:34:07;;;;;;;22.52;7.82;;;;;;;;;;5062993;28;20056;-47
2022/01/29 07:36:33;;;;;;;22.85;8.80;;;;;;;;;;5069008;28;20028;-48
2022/01/29 07:38:59;;;;;;;17.90;8.38;;;;;;;;;;5057554;28;20032;-50
2022/01/29 07:41:25;;;;;;;22.05;9.10;;;;;;;;;;5055892;28;20449;-48
2022/01/29 07:43:51;;;;;;;19.48;8.75;;;;;;;;;;5054918;28;20017;-46
2022/01/29 07:46:17;;;;;;;21.92;8.85;;;;;;;;;;5064806;28;20028;-46
2022/01/29 07:48:43;;;;;;;19.27;8.88;;;;;;;;;;5067817;28;20496;-48
2022/01/29 07:51:08;;;;;;;27.77;8.88;;;;;;;;;;5069186;28;20075;-46
2022/01/29 07:53:34;;;;;;;18.80;9.82;;;;;;;;;;5070545;28;20443;-46
2022/01/29 07:56:00;;;;;;;21.80;8.20;;;;;;;;;;5061444;28;20416;-47
2022/01/29 07:58:26;;;;;;;25.58;9.35;;;;;;;;;;5081285;28;20029;-50
2022/01/29 08:00:53;;;;;;;18.20;9.20;;;;;;;;;;5061677;28;20079;-46
2022/01/29 08:03:19;;;;;;;20.00;8.80;;;;;;;;;;5071751;28;20553;-47
2022/01/29 08:05:45;;;;;;;20.95;8.85;;;;;;;;;;5066008;28;20107;-46
2022/01/29 08:08:11;;;;;;;21.45;8.95;;;;;;;;;;5072571;28;20027;-46
2022/01/29 08:10:37;;;;;;;17.80;8.27;;;;;;;;;;5072873;28;20021;-46
2022/01/29 08:13:03;;;;;;;17.85;8.38;;;;;;;;;;5072330;28;20115;-46
2022/01/29 08:15:29;;;;;;;20.13;8.15;;;;;;;;;;5072801;28;20119;-50
2022/01/29 08:17:55;;;;;;;16.10;7.72;;;;;;;;;;5073987;28;20094;-46
2022/01/29 08:20:21;;;;;;;17.40;8.32;;;;;;;;;;5060278;28;20139;-47
2022/01/29 08:22:47;;;;;;;18.77;9.40;;;;;;;;;;5058610;28;20052;-46
2022/01/29 08:25:13;;;;;;;19.00;9.07;;;;;;;;;;5063726;28;20396;-48
2022/01/29 08:27:39;;;;;;;20.10;8.18;;;;;;;;;;5066162;28;20039;-46
2022/01/29 08:30:06;;;;;;;21.17;8.75;;;;;;;;;;5071070;28;20029;-47
2022/01/29 08:32:32;;;;;;;16.80;7.78;;;;;;;;;;5058392;28;20044;-46
2022/01/29 08:34:58;;;;;;;22.23;8.68;;;;;;;;;;5061232;28;20037;-46
2022/01/29 08:37:24;;;;;;;21.17;8.95;;;;;;;;;;5069425;28;20052;-46
2022/01/29 08:39:50;;;;;;;20.55;8.85;;;;;;;;;;5063940;28;20044;-46
2022/01/29 08:42:16;;;;;;;20.25;9.10;;;;;;;;;;5070888;28;20032;-45
2022/01/29 08:44:43;;;;;;;20.80;9.13;;;;;;;;;;5060137;28;20124;-48
2022/01/29 08:47:09;;;;;;;19.98;9.50;;;;;;;;;;5068524;28;20025;-46
2022/01/29 08:49:35;;;;;;;25.73;10.00;;;;;;;;;;5060239;28;20028;-46
2022/01/29 08:52:01;;;;;;;21.30;9.05;;;;;;;;;;5069261;28;20048;-47
2022/01/29 08:54:26;;;;;;;20.27;9.27;;;;;;;;;;5070110;28;20056;-47
2022/01/29 08:56:53;;;;;;;21.50;9.32;;;;;;;;;;5061559;28;20036;-50
2022/01/29 08:59:19;;;;;;;22.88;9.55;;;;;;;;;;5066396;28;20033;-49
2022/01/29 09:01:45;;;;;;;20.13;8.65;;;;;;;;;;5066564;28;20025;-46
2022/01/29 09:04:11;;;;;;;22.23;9.77;;;;;;;;;;5067104;28;20021;-47
2022/01/29 09:06:37;;;;;;;23.77;8.85;;;;;;;;;;5070420;28;20020;-45
2022/01/29 09:09:03;;;;;;;21.02;8.30;;;;;;;;;;5066427;28;20039;-47
2022/01/29 09:11:29;;;;;;;17.85;8.95;;;;;;;;;;5072530;28;20415;-47
2022/01/29 09:13:55;;;;;;;18.45;9.00;;;;;;;;;;5063624;28;20365;-46
2022/01/29 09:16:21;;;;;;;22.95;9.55;;;;;;;;;;5064515;28;20032;-50
2022/01/29 09:18:47;;;;;;;21.10;9.45;;;;;;;;;;5068704;28;20023;-48
2022/01/29 09:21:13;;;;;;;22.95;10.10;;;;;;;;;;5068177;28;20103;-47
2022/01/29 09:23:39;;;;;;;22.88;9.38;;;;;;;;;;5071233;28;20033;-47
2022/01/29 09:26:05;;;;;;;19.83;9.63;;;;;;;;;;5068056;28;20437;-48
2022/01/29 09:28:31;;;;;;;17.75;8.77;;;;;;;;;;5072628;28;20111;-49
2022/01/29 09:30:57;;;;;;;23.35;10.18;;;;;;;;;;5070701;28;20541;-47
2022/01/29 09:33:23;;;;;;;20.92;10.15;;;;;;;;;;5064280;28;20033;-45
2022/01/29 09:35:49;;;;;;;31.13;11.77;;;;;;;;;;5072274;28;20417;-48
2022/01/29 09:38:15;;;;;;;25.15;9.90;;;;;;;;;;5072273;28;20052;-48
2022/01/29 09:40:42;;;;;;;21.58;10.40;;;;;;;;;;5068383;28;20518;-50
2022/01/29 09:43:10;;;;;;;22.17;10.18;;;;;;;;;;5068603;28;20039;-46
2022/01/29 09:45:36;;;;;;;22.02;9.73;;;;;;;;;;5064991;28;20055;-46
2022/01/29 09:48:02;;;;;;;23.48;10.48;;;;;;;;;;5070114;28;20104;-47
2022/01/29 09:50:38;;;;;;;20.23;10.02;;;;;;;;;;5064719;28;20044;-46
2022/01/29 09:53:05;;;;;;;24.08;10.55;;;;;;;;;;5059464;28;20071;-47
2022/01/29 09:55:31;;;;;;;24.67;10.90;;;;;;;;;;5059846;28;20032;-46
2022/01/29 09:57:57;;;;;;;26.52;11.15;;;;;;;;;;5059660;28;20609;-50
2022/01/29 10:00:24;;;;;;;32.92;12.02;;;;;;;;;;5060228;28;20033;-48
2022/01/29 10:03:08;;;;;;;32.75;12.35;;;;;;;;;;5057677;28;20388;-46
2022/01/29 10:05:35;;;;;;;26.88;11.25;;;;;;;;;;5059217;28;20112;-46
2022/01/29 10:08:01;;;;;;;25.02;10.50;;;;;;;;;;5058960;28;20017;-49
2022/01/29 10:10:27;;;;;;;24.20;11.05;;;;;;;;;;5057828;28;20360;-48
2022/01/29 10:12:53;;;;;;;26.70;10.93;;;;;;;;;;5060439;28;20028;-51
2022/01/29 10:15:22;;;;;;;26.65;12.32;;;;;;;;;;5060572;28;20967;-48
2022/01/29 10:17:49;;;;;;;25.48;11.57;;;;;;;;;;5061207;28;20152;-48
2022/01/29 10:20:22;;;;;;;25.48;12.32;;;;;;;;;;5059117;28;20052;-47
2022/01/29 10:22:49;;;;;;;32.15;13.40;;;;;;;;;;5062149;28;20039;-48
2022/01/29 10:25:20;;;;;;;23.00;11.18;;;;;;;;;;5059310;28;20103;-45
2022/01/29 10:28:05;;;;;;;25.00;11.50;;;;;;;;;;5060728;28;20035;-48
2022/01/29 10:30:31;;;;;;;22.40;10.77;;;;;;;;;;5058663;28;20108;-46
2022/01/29 10:33:17;;;;;;;29.60;11.38;;;;;;;;;;5063917;28;20107;-50
2022/01/29 10:35:43;;;;;;;28.27;11.30;;;;;;;;;;5061610;28;20029;-46
2022/01/29 10:38:09;;;;;;;26.30;10.93;;;;;;;;;;5064523;28;20024;-48
2022/01/29 10:40:35;;;;;;;27.02;11.88;;;;;;;;;;5073225;28;20025;-49
2022/01/29 10:43:05;;;;;;;24.00;11.38;;;;;;;;;;5068609;28;20038;-47
2022/01/29 10:45:35;;;;;;;26.55;12.07;;;;;;;;;;5061208;28;20028;-46
2022/01/29 10:48:03;;;;;;;24.48;11.20;;;;;;;;;;5066650;28;20032;-46
2022/01/29 10:50:29;;;;;;;26.10;12.10;;;;;;;;;;5072614;28;20029;-48
2022/01/29 10:52:56;;;;;;;25.75;11.95;;;;;;;;;;5057979;28;20115;-48
2022/01/29 10:55:22;;;;;;;22.65;10.80;;;;;;;;;;5071913;28;20033;-49
2022/01/29 10:57:49;;;;;;;23.05;10.70;;;;;;;;;;5067156;28;20119;-47
2022/01/29 11:00:24;;;;;;;21.63;10.73;;;;;;;;;;5067957;28;20031;-51
2022/01/29 11:02:54;;;;;;;31.98;11.75;;;;;;;;;;5067254;28;20059;-45
2022/01/29 11:05:23;;;;;;;28.95;10.35;;;;;;;;;;5059789;28;20044;-46
2022/01/29 11:07:52;;;;;;;20.77;10.30;;;;;;;;;;5059572;28;20029;-48
2022/01/29 11:10:19;;;;;;;22.63;10.98;;;;;;;;;;5067300;28;20086;-48
2022/01/29 11:12:45;;;;;;;19.35;9.45;;;;;;;;;;5064644;28;20357;-48
2022/01/29 11:15:12;;;;;;;19.95;9.80;;;;;;;;;;5071532;28;20111;-45
2022/01/29 11:17:38;;;;;;;20.80;9.65;;;;;;;;;;5070823;28;20028;-48
2022/01/29 11:20:04;;;;;;;17.75;8.90;;;;;;;;;;5066910;28;20036;-47
2022/01/29 11:22:41;;;;;;;23.10;9.80;;;;;;;;;;5066663;28;20103;-46
2022/01/29 11:25:08;;;;;;;19.85;9.10;;;;;;;;;;5061978;28;20021;-50
2022/01/29 11:27:39;;;;;;;18.88;9.70;;;;;;;;;;5063901;28;20111;-48
2022/01/29 11:30:05;;;;;;;16.55;8.63;;;;;;;;;;5058624;28;20025;-47
2022/01/29 11:32:33;;;;;;;17.85;8.30;;;;;;;;;;5068490;28;20024;-46
2022/01/29 11:35:14;;;;;;;19.58;9.27;;;;;;;;;;5070814;28;20028;-47
2022/01/29 11:37:53;;;;;;;14.90;8.00;;;;;;;;;;5070813;28;20029;-46
2022/01/29 11:40:27;;;;;;;15.18;7.82;;;;;;;;;;5072327;28;20052;-47
2022/01/29 11:42:53;;;;;;;13.30;7.38;;;;;;;;;;5065990;28;20056;-45
2022/01/29 11:45:41;;;;;;;16.27;7.95;;;;;;;;;;5070230;28;20380;-46
2022/01/29 11:48:08;;;;;;;12.90;6.78;;;;;;;;;;5066373;28;20456;-46
2022/01/29 11:50:34;;;;;;;13.25;7.13;;;;;;;;;;5071920;28;20052;-49
2022/01/29 11:53:03;;;;;;;17.08;7.57;;;;;;;;;;5071708;28;20060;-47
2022/01/29 11:55:40;;;;;;;13.07;6.60;;;;;;;;;;5071995;28;20127;-46
2022/01/29 11:58:22;;;;;;;12.77;6.43;;;;;;;;;;5060888;28;20083;-47
2022/01/29 12:00:52;;;;;;;12.80;6.53;;;;;;;;;;5069813;28;20024;-48
2022/01/29 12:03:33;;;;;;;17.70;6.72;;;;;;;;;;5071320;28;20282;-46
2022/01/29 12:06:14;;;;;;;11.68;6.30;;;;;;;;;;5071750;28;20074;-48
2022/01/29 12:09:01;;;;;;;11.27;6.50;;;;;;;;;;5061265;28;20082;-46
2022/01/29 12:11:27;;;;;;;15.38;6.15;;;;;;;;;;5071001;28;20030;-46
2022/01/29 12:14:11;;;;;;;12.38;5.82;;;;;;;;;;5071934;28;20032;-45
2022/01/29 12:16:54;;;;;;;12.15;5.65;;;;;;;;;;5071414;28;20093;-48
2022/01/29 12:19:40;;;;;;;14.23;5.20;;;;;;;;;;5069901;28;20029;-46
2022/01/29 12:22:15;;;;;;;14.07;5.82;;;;;;;;;;5069118;28;20064;-46
2022/01/29 12:24:42;;;;;;;13.52;6.40;;;;;;;;;;5071679;28;20017;-46
2022/01/29 12:27:09;;;;;;;12.75;5.47;;;;;;;;;;5064672;28;20373;-46
2022/01/29 12:29:35;;;;;;;13.32;5.53;;;;;;;;;;5071655;28;20074;-47
2022/01/29 12:32:01;;;;;;;9.65;5.45;;;;;;;;;;5060181;28;20135;-47
2022/01/29 12:34:28;;;;;;;11.73;5.95;;;;;;;;;;5069912;28;20033;-46
2022/01/29 12:37:10;;;;;;;10.32;5.55;;;;;;;;;;5065761;28;20047;-46
2022/01/29 12:39:37;;;;;;;11.35;5.38;;;;;;;;;;5071859;28;20093;-45
2022/01/29 12:42:26;;;;;;;11.70;5.43;;;;;;;;;;5065729;28;20114;-49
2022/01/29 12:44:52;;;;;;;8.30;4.68;;;;;;;;;;5070065;28;20028;-45
2022/01/29 12:47:26;;;;;;;12.93;5.20;;;;;;;;;;5071387;28;20024;-49
2022/01/29 12:49:52;;;;;;;11.75;5.00;;;;;;;;;;5070987;28;20025;-47
2022/01/29 12:52:19;;;;;;;10.38;4.93;;;;;;;;;;5069355;28;20123;-46
2022/01/29 12:54:52;;;;;;;9.60;3.90;;;;;;;;;;5058333;28;20116;-46
2022/01/29 12:57:18;;;;;;;7.63;3.80;;;;;;;;;;5069517;28;20033;-46
2022/01/29 12:59:44;;;;;;;6.63;4.05;;;;;;;;;;5074200;28;20124;-47
2022/01/29 13:02:10;;;;;;;7.72;4.50;;;;;;;;;;5063119;28;20032;-48
2022/01/29 13:04:38;;;;;;;7.78;3.63;;;;;;;;;;5074783;28;20031;-45
2022/01/29 13:07:05;;;;;;;8.45;4.30;;;;;;;;;;5075225;28;20362;-46
2022/01/29 13:09:34;;;;;;;9.55;4.15;;;;;;;;;;5072895;28;20039;-48
2022/01/29 13:12:08;;;;;;;5.97;3.30;;;;;;;;;;5071188;28;20025;-45
2022/01/29 13:14:34;;;;;;;8.77;3.20;;;;;;;;;;5073432;28;20032;-46
2022/01/29 13:17:10;;;;;;;6.35;3.45;;;;;;;;;;5074431;28;20143;-48
2022/01/29 13:19:37;;;;;;;6.05;3.50;;;;;;;;;;5072324;28;20036;-46
2022/01/29 13:22:07;;;;;;;6.72;2.92;;;;;;;;;;5074179;28;20083;-49
2022/01/29 13:24:38;;;;;;;5.20;2.55;;;;;;;;;;5074156;28;20484;-48
2022/01/29 13:27:12;;;;;;;5.35;2.50;;;;;;;;;;5074491;28;20020;-46
2022/01/29 13:29:38;;;;;;;;;;;;;;;;;;5075049;28;20083;-46
2022/01/29 13:32:05;;;;;;;6.10;2.95;;;;;;;;;;5073818;28;20250;-46
2022/01/29 13:34:32;;;;;;;5.22;2.38;;;;;;;;;;5065687;28;20350;-47
2022/01/29 13:36:59;;;;;;;2.95;2.13;;;;;;;;;;5070953;28;20032;-46
2022/01/29 13:39:26;;;;;;;3.42;2.20;;;;;;;;;;5072426;28;20044;-48
2022/01/29 13:42:06;;;;;;;3.45;2.40;;;;;;;;;;5071035;28;20115;-49
2022/01/29 13:44:32;;;;;;;2.92;2.03;;;;;;;;;;5062528;28;20100;-47
2022/01/29 13:47:08;;;;;;;4.50;1.92;;;;;;;;;;5072589;28;20102;-46
2022/01/29 13:49:35;;;;;;;3.17;1.95;;;;;;;;;;5067023;28;20036;-48
2022/01/29 13:52:12;;;;;;;4.45;1.95;;;;;;;;;;5073607;28;20083;-46
2022/01/29 13:54:38;;;;;;;2.92;1.60;;;;;;;;;;5072936;28;20123;-46
2022/01/29 13:57:08;;;;;;;2.53;1.48;;;;;;;;;;5072239;28;20504;-47
2022/01/29 13:59:37;;;;;;;2.40;1.30;;;;;;;;;;5071143;28;20551;-48
2022/01/29 14:02:04;;;;;;;2.75;1.55;;;;;;;;;;5068198;28;20040;-49
2022/01/29 14:04:36;;;;;;;3.10;1.80;;;;;;;;;;5073726;28;20028;-46
2022/01/29 14:07:07;;;;;;;3.65;1.42;;;;;;;;;;5073661;28;20480;-47
2022/01/29 14:09:36;;;;;;;1.48;1.17;;;;;;;;;;5073435;28;20021;-47
2022/01/29 14:12:04;;;;;;;3.80;1.40;;;;;;;;;;5062454;28;20032;-48
2022/01/29 14:14:34;;;;;;;2.95;1.58;;;;;;;;;;5071076;28;20064;-51
2022/01/29 14:17:11;;;;;;;1.90;1.20;;;;;;;;;;5068458;28;20025;-51
2022/01/29 14:19:38;;;;;;;1.73;1.10;;;;;;;;;;5068727;28;20107;-46
2022/01/29 14:22:04;;;;;;;1.92;1.40;;;;;;;;;;5065302;28;20075;-46
2022/01/29 14:24:31;;;;;;;1.83;1.13;;;;;;;;;;5070545;28;20025;-48
2022/01/29 14:26:57;;;;;;;3.20;1.50;;;;;;;;;;5070767;28;20017;-47
2022/01/29 14:29:24;;;;;;;2.25;1.35;;;;;;;;;;5062150;28;20032;-47
2022/01/29 14:31:50;;;;;;;2.03;1.33;;;;;;;;;;5054558;28;20224;-46
2022/01/29 14:34:16;;;;;;;2.30;1.25;;;;;;;;;;5056302;28;20020;-50
2022/01/29 14:36:42;;;;;;;1.77;1.08;;;;;;;;;;5066000;28;20107;-47
2022/01/29 14:39:09;;;;;;;3.42;1.35;;;;;;;;;;5064272;28;20036;-49
2022/01/29 14:41:36;;;;;;;2.65;1.48;;;;;;;;;;5065642;28;20052;-46
2022/01/29 14:44:02;;;;;;;3.05;1.40;;;;;;;;;;5063143;28;20058;-47
2022/01/29 14:46:28;;;;;;;2.75;1.35;;;;;;;;;;5059980;28;20025;-46
2022/01/29 14:48:54;;;;;;;2.28;1.50;;;;;;;;;;5066392;28;20037;-46